Time;durP1;ratioP1;P1;durP2;ratioP2;P2;SDS_P1;SDS_P2;PMS_P1;PMS_P2;Temp;Humidity;BMP_temperature;BMP_pressure;BME280_temperature;BME280_humidity;BME280_pressure;Samples;Min_cycle;Max_cycle;Signal;HPM_P1;HPM_P2
2023/03/25 00:02:39;;;;;;;1.60;1.30;;;;;;;;;;6267889;28;20198;-60
2023/03/25 00:05:40;;;;;;;3.03;1.10;;;;;;;;;;6235843;28;20210;-60
2023/03/25 00:08:41;;;;;;;2.43;1.57;;;;;;;;;;6257110;28;20224;-60
2023/03/25 00:11:43;;;;;;;3.80;1.67;;;;;;;;;;6251112;28;20250;-60
2023/03/25 00:14:53;;;;;;;2.03;1.53;;;;;;;;;;6232415;28;20199;-60
2023/03/25 00:17:54;;;;;;;1.70;1.60;;;;;;;;;;6245388;28;20199;-60
2023/03/25 00:20:56;;;;;;;1.30;1.20;;;;;;;;;;6233129;28;20189;-60
2023/03/25 00:23:57;;;;;;;1.70;1.60;;;;;;;;;;6228335;28;20214;-59
2023/03/25 00:26:58;;;;;;;2.53;2.33;;;;;;;;;;6235572;28;20201;-59
2023/03/25 00:29:59;;;;;;;3.10;2.60;;;;;;;;;;6266738;28;20199;-59
2023/03/25 00:33:01;;;;;;;2.63;2.27;;;;;;;;;;6242159;28;20182;-59
2023/03/25 00:36:04;;;;;;;2.40;1.90;;;;;;;;;;6261740;28;20191;-59
2023/03/25 00:39:05;;;;;;;2.30;2.10;;;;;;;;;;6273555;28;20254;-59
2023/03/25 00:42:10;;;;;;;1.90;1.80;;;;;;;;;;6256245;28;20241;-60
2023/03/25 00:45:14;;;;;;;1.93;1.73;;;;;;;;;;6254439;28;20329;-60
2023/03/25 00:48:15;;;;;;;3.57;1.67;;;;;;;;;;6232171;28;20222;-60
2023/03/25 00:51:20;;;;;;;1.53;1.43;;;;;;;;;;6255922;28;20273;-60
2023/03/25 00:54:21;;;;;;;1.57;1.47;;;;;;;;;;6232848;28;20207;-60
2023/03/25 00:57:22;;;;;;;1.60;1.50;;;;;;;;;;6261854;28;20195;-60
2023/03/25 01:00:23;;;;;;;1.70;1.60;;;;;;;;;;6237997;28;20244;-60
2023/03/25 01:03:27;;;;;;;1.47;1.30;;;;;;;;;;6267256;28;20198;-60
2023/03/25 01:06:31;;;;;;;1.43;1.17;;;;;;;;;;6249590;28;20183;-60
2023/03/25 01:09:32;;;;;;;2.10;1.63;;;;;;;;;;6249892;28;20217;-60
2023/03/25 01:12:33;;;;;;;1.57;1.27;;;;;;;;;;6248130;28;20195;-58
2023/03/25 01:15:34;;;;;;;2.63;1.40;;;;;;;;;;6265184;28;20197;-59
2023/03/25 01:18:37;;;;;;;1.53;1.43;;;;;;;;;;6250149;28;20202;-59
2023/03/25 01:21:38;;;;;;;1.70;1.60;;;;;;;;;;6226670;28;20196;-60
2023/03/25 01:24:40;;;;;;;1.50;1.40;;;;;;;;;;6247884;28;20190;-58
2023/03/25 01:27:41;;;;;;;2.80;1.83;;;;;;;;;;6233373;28;20268;-58
2023/03/25 01:30:42;;;;;;;1.80;1.40;;;;;;;;;;6241012;28;20242;-58
2023/03/25 01:33:43;;;;;;;1.60;1.50;;;;;;;;;;6233341;28;20186;-58
2023/03/25 01:36:47;;;;;;;1.80;1.70;;;;;;;;;;6249255;28;20194;-58
2023/03/25 01:39:48;;;;;;;2.23;1.70;;;;;;;;;;6236401;28;20236;-59
2023/03/25 01:42:49;;;;;;;6.57;1.97;;;;;;;;;;6265657;28;20194;-58
2023/03/25 01:45:50;;;;;;;1.67;1.50;;;;;;;;;;6258304;28;20191;-58
2023/03/25 01:48:52;;;;;;;2.10;1.50;;;;;;;;;;6232565;28;20214;-58
2023/03/25 01:51:56;;;;;;;2.00;1.50;;;;;;;;;;6230249;28;20230;-59
2023/03/25 01:54:58;;;;;;;2.17;1.97;;;;;;;;;;6258338;28;20182;-58
2023/03/25 01:58:00;;;;;;;2.40;1.90;;;;;;;;;;6248112;28;20187;-59
2023/03/25 02:01:02;;;;;;;1.90;1.80;;;;;;;;;;6245263;28;20194;-58
2023/03/25 02:04:10;;;;;;;1.50;1.37;;;;;;;;;;6256992;28;20195;-58
2023/03/25 02:07:15;;;;;;;1.83;1.73;;;;;;;;;;6239018;28;20215;-58
2023/03/25 02:10:17;;;;;;;2.40;1.40;;;;;;;;;;6244184;28;20222;-58
2023/03/25 02:13:19;;;;;;;1.60;1.50;;;;;;;;;;6248910;28;20190;-59
2023/03/25 02:16:23;;;;;;;1.83;1.63;;;;;;;;;;6229397;28;20198;-58
2023/03/25 02:19:31;;;;;;;2.20;2.00;;;;;;;;;;6236057;28;20187;-58
2023/03/25 02:22:40;;;;;;;2.00;1.40;;;;;;;;;;6259587;28;20187;-59
2023/03/25 02:25:48;;;;;;;3.73;1.90;;;;;;;;;;6237082;28;20270;-58
2023/03/25 02:29:00;;;;;;;1.40;1.30;;;;;;;;;;6242997;28;20234;-59
2023/03/25 02:32:20;;;;;;;1.67;1.57;;;;;;;;;;6242033;28;20235;-59
2023/03/25 02:35:40;;;;;;;2.33;1.90;;;;;;;;;;6258840;28;20187;-59
2023/03/25 02:38:42;;;;;;;1.70;1.60;;;;;;;;;;6248909;28;20198;-59
2023/03/25 02:41:49;;;;;;;1.77;1.53;;;;;;;;;;6228072;28;20202;-59
2023/03/25 02:44:56;;;;;;;2.07;1.40;;;;;;;;;;6260292;28;20202;-59
2023/03/25 02:48:00;;;;;;;1.67;1.57;;;;;;;;;;6244324;28;20306;-59
2023/03/25 02:51:07;;;;;;;1.63;1.47;;;;;;;;;;6249246;28;20187;-59
2023/03/25 02:54:12;;;;;;;2.20;1.50;;;;;;;;;;6246975;28;20189;-59
2023/03/25 02:57:14;;;;;;;1.20;1.00;;;;;;;;;;6242486;28;20187;-59
2023/03/25 03:00:19;;;;;;;1.40;1.30;;;;;;;;;;6238050;28;20233;-59
2023/03/25 03:03:20;;;;;;;1.47;1.20;;;;;;;;;;6244796;28;20186;-59
2023/03/25 03:06:22;;;;;;;1.97;1.50;;;;;;;;;;6256976;28;20222;-59
2023/03/25 03:09:31;;;;;;;1.40;0.90;;;;;;;;;;6263988;28;20206;-58
2023/03/25 03:12:42;;;;;;;1.40;1.30;;;;;;;;;;6232934;28;20196;-58
2023/03/25 03:15:52;;;;;;;1.17;1.07;;;;;;;;;;6247925;28;20226;-59
2023/03/25 03:19:20;;;;;;;1.13;1.03;;;;;;;;;;6244163;28;20198;-59
2023/03/25 03:22:33;;;;;;;2.23;1.20;;;;;;;;;;6262986;28;20199;-59
2023/03/25 03:25:36;;;;;;;1.93;1.40;;;;;;;;;;6248889;28;20192;-58
2023/03/25 03:28:44;;;;;;;1.70;1.60;;;;;;;;;;6251845;28;20274;-59
2023/03/25 03:31:50;;;;;;;2.10;1.90;;;;;;;;;;6242972;28;20313;-59
2023/03/25 03:34:52;;;;;;;1.90;1.80;;;;;;;;;;6251537;28;20195;-59
2023/03/25 03:37:59;;;;;;;1.77;1.67;;;;;;;;;;6243773;28;20191;-59
2023/03/25 03:41:03;;;;;;;4.70;1.87;;;;;;;;;;6259404;28;20225;-59
2023/03/25 03:44:08;;;;;;;2.67;1.53;;;;;;;;;;6253540;28;20197;-59
2023/03/25 03:47:16;;;;;;;2.33;1.57;;;;;;;;;;6248181;28;20220;-59
2023/03/25 03:50:19;;;;;;;1.70;1.60;;;;;;;;;;6242159;28;20195;-58
2023/03/25 03:53:25;;;;;;;1.63;1.50;;;;;;;;;;6263169;28;20273;-59
2023/03/25 03:56:52;;;;;;;2.57;1.37;;;;;;;;;;6245089;28;20191;-59
2023/03/25 04:00:12;;;;;;;1.27;1.13;;;;;;;;;;6266014;28;20202;-59
2023/03/25 04:03:15;;;;;;;1.67;1.57;;;;;;;;;;6248759;28;20225;-59
2023/03/25 04:06:35;;;;;;;1.77;1.67;;;;;;;;;;6251129;28;20190;-59
2023/03/25 04:09:42;;;;;;;2.90;1.80;;;;;;;;;;6251746;28;20246;-58
2023/03/25 04:12:45;;;;;;;1.90;1.80;;;;;;;;;;6251114;28;20211;-59
2023/03/25 04:15:47;;;;;;;1.80;1.60;;;;;;;;;;6251560;28;20198;-59
2023/03/25 04:18:52;;;;;;;2.03;1.83;;;;;;;;;;6229583;28;20274;-59
2023/03/25 04:21:53;;;;;;;2.07;1.87;;;;;;;;;;6250182;28;20289;-58
2023/03/25 04:24:55;;;;;;;2.20;2.00;;;;;;;;;;6250860;28;20205;-58
2023/03/25 04:27:57;;;;;;;2.70;2.50;;;;;;;;;;6232474;28;20218;-59
2023/03/25 04:30:59;;;;;;;2.53;2.23;;;;;;;;;;6266406;28;20376;-59
2023/03/25 04:34:01;;;;;;;3.63;2.10;;;;;;;;;;6259415;28;20221;-59
2023/03/25 04:37:02;;;;;;;2.37;2.17;;;;;;;;;;6252522;28;20183;-59
2023/03/25 04:40:05;;;;;;;2.30;1.97;;;;;;;;;;6254239;28;20202;-59
2023/03/25 04:43:06;;;;;;;2.23;2.13;;;;;;;;;;6255885;28;20221;-58
2023/03/25 04:46:10;;;;;;;2.03;1.77;;;;;;;;;;6232564;28;20190;-59
2023/03/25 04:49:18;;;;;;;2.90;1.77;;;;;;;;;;6256074;28;20265;-59
2023/03/25 04:52:19;;;;;;;2.03;1.80;;;;;;;;;;6250446;28;20278;-59
2023/03/25 04:55:20;;;;;;;1.67;1.57;;;;;;;;;;6263073;28;20187;-58
2023/03/25 04:58:22;;;;;;;4.00;2.37;;;;;;;;;;6240407;28;20186;-59
2023/03/25 05:01:29;;;;;;;1.87;1.70;;;;;;;;;;6245008;28;20202;-60
2023/03/25 05:04:30;;;;;;;2.17;1.93;;;;;;;;;;6270992;28;20190;-59
2023/03/25 05:07:32;;;;;;;1.57;1.47;;;;;;;;;;6245296;28;20257;-59
2023/03/25 05:10:35;;;;;;;1.83;1.73;;;;;;;;;;6229668;28;20195;-59
2023/03/25 05:13:36;;;;;;;1.37;1.27;;;;;;;;;;6246194;28;20198;-59
2023/03/25 05:16:37;;;;;;;2.20;1.90;;;;;;;;;;6239547;28;20194;-59
2023/03/25 05:19:42;;;;;;;1.67;1.57;;;;;;;;;;6238706;28;20194;-60
2023/03/25 05:22:44;;;;;;;1.60;1.50;;;;;;;;;;6263826;28;20252;-59
2023/03/25 05:25:46;;;;;;;3.17;2.17;;;;;;;;;;6232673;28;20194;-61
2023/03/25 05:28:50;;;;;;;1.77;1.67;;;;;;;;;;6247475;28;20365;-61
2023/03/25 05:31:51;;;;;;;2.10;1.90;;;;;;;;;;6226388;28;20238;-61
2023/03/25 05:34:52;;;;;;;1.77;1.63;;;;;;;;;;6227817;28;20399;-61
2023/03/25 05:37:54;;;;;;;2.33;2.00;;;;;;;;;;6227602;28;20207;-61
2023/03/25 05:40:55;;;;;;;2.23;2.03;;;;;;;;;;6223321;28;20274;-61
2023/03/25 05:43:56;;;;;;;1.87;1.70;;;;;;;;;;6252961;28;20281;-61
2023/03/25 05:47:01;;;;;;;2.07;1.87;;;;;;;;;;6220926;28;20194;-61
2023/03/25 05:50:02;;;;;;;1.97;1.87;;;;;;;;;;6253630;28;20187;-60
2023/03/25 05:53:03;;;;;;;1.50;1.40;;;;;;;;;;6231660;28;20202;-61
2023/03/25 05:56:05;;;;;;;1.80;1.70;;;;;;;;;;6224306;28;20199;-61
2023/03/25 05:59:07;;;;;;;1.73;1.63;;;;;;;;;;6223084;28;20281;-61
2023/03/25 06:02:11;;;;;;;1.80;1.63;;;;;;;;;;6272846;28;20221;-61
2023/03/25 06:05:13;;;;;;;1.70;1.60;;;;;;;;;;6246744;28;20190;-61
2023/03/25 06:08:15;;;;;;;2.13;1.93;;;;;;;;;;6277484;28;20297;-60
2023/03/25 06:11:17;;;;;;;2.50;2.30;;;;;;;;;;6222106;28;20252;-59
2023/03/25 06:14:19;;;;;;;2.77;2.57;;;;;;;;;;6257886;28;20217;-60
2023/03/25 06:17:21;;;;;;;2.40;2.20;;;;;;;;;;6264912;28;20198;-60
2023/03/25 06:20:22;;;;;;;2.43;2.23;;;;;;;;;;6248791;28;20190;-60
2023/03/25 06:23:25;;;;;;;3.97;2.47;;;;;;;;;;6263561;28;20213;-59
2023/03/25 06:26:26;;;;;;;3.97;3.57;;;;;;;;;;6263899;28;20194;-60
2023/03/25 06:29:27;;;;;;;3.30;3.00;;;;;;;;;;6244770;28;21090;-60
2023/03/25 06:32:29;;;;;;;3.30;2.80;;;;;;;;;;6258023;28;20257;-60
2023/03/25 06:35:30;;;;;;;3.37;2.97;;;;;;;;;;6247630;28;20210;-60
2023/03/25 06:38:32;;;;;;;3.90;3.10;;;;;;;;;;6246126;28;20205;-60
2023/03/25 06:41:36;;;;;;;2.97;2.73;;;;;;;;;;6222784;28;20209;-60
2023/03/25 06:44:37;;;;;;;2.87;2.20;;;;;;;;;;6229568;28;20285;-60
2023/03/25 06:47:39;;;;;;;3.10;2.80;;;;;;;;;;6259387;28;20292;-59
2023/03/25 06:50:40;;;;;;;3.10;2.20;;;;;;;;;;6242216;28;20207;-59
2023/03/25 06:53:41;;;;;;;5.03;2.60;;;;;;;;;;6244066;28;20272;-60
2023/03/25 06:56:42;;;;;;;3.67;2.50;;;;;;;;;;6239202;28;20190;-60
2023/03/25 06:59:43;;;;;;;2.60;2.40;;;;;;;;;;6213246;28;20202;-59
2023/03/25 07:02:44;;;;;;;3.00;2.80;;;;;;;;;;6223917;28;20202;-59
2023/03/25 07:05:45;;;;;;;3.43;3.13;;;;;;;;;;6245668;28;20195;-60
2023/03/25 07:08:46;;;;;;;3.50;3.20;;;;;;;;;;6239480;28;20205;-60
2023/03/25 07:11:47;;;;;;;3.27;2.93;;;;;;;;;;6236258;28;20193;-60
2023/03/25 07:14:52;;;;;;;3.40;3.10;;;;;;;;;;6223433;28;20197;-59
2023/03/25 07:17:53;;;;;;;2.87;2.67;;;;;;;;;;6220945;28;20199;-60
2023/03/25 07:20:54;;;;;;;3.13;2.87;;;;;;;;;;6218935;28;20252;-60
2023/03/25 07:23:55;;;;;;;2.63;2.43;;;;;;;;;;6221324;28;20201;-59
2023/03/25 07:26:56;;;;;;;3.67;2.93;;;;;;;;;;6220468;28;20202;-59
2023/03/25 07:29:57;;;;;;;5.10;2.90;;;;;;;;;;6260855;28;20214;-59
2023/03/25 07:32:58;;;;;;;2.70;2.50;;;;;;;;;;6259539;28;20217;-59
2023/03/25 07:35:59;;;;;;;3.40;2.73;;;;;;;;;;6226142;28;20209;-62
2023/03/25 07:39:00;;;;;;;2.23;2.10;;;;;;;;;;6241052;28;20261;-62
2023/03/25 07:42:01;;;;;;;3.23;3.00;;;;;;;;;;6253747;28;20209;-62
2023/03/25 07:45:03;;;;;;;3.13;2.93;;;;;;;;;;6243723;28;20225;-62
2023/03/25 07:48:04;;;;;;;3.63;2.90;;;;;;;;;;6268939;28;20215;-61
2023/03/25 07:51:05;;;;;;;5.00;4.60;;;;;;;;;;6222846;28;20191;-61
2023/03/25 07:54:06;;;;;;;4.47;4.07;;;;;;;;;;6255459;28;20186;-61
2023/03/25 07:57:07;;;;;;;3.90;3.60;;;;;;;;;;6259587;28;20194;-61
2023/03/25 08:00:10;;;;;;;4.63;3.53;;;;;;;;;;6241968;28;20186;-61
2023/03/25 08:03:11;;;;;;;3.50;3.20;;;;;;;;;;6234436;28;20187;-61
2023/03/25 08:06:13;;;;;;;4.13;3.53;;;;;;;;;;6242447;28;20195;-61
2023/03/25 08:09:14;;;;;;;3.70;3.40;;;;;;;;;;6225604;28;20218;-61
2023/03/25 08:12:15;;;;;;;4.73;3.30;;;;;;;;;;6263406;28;20248;-61
2023/03/25 08:15:17;;;;;;;3.80;3.47;;;;;;;;;;6220585;28;20195;-61
2023/03/25 08:18:18;;;;;;;4.17;3.80;;;;;;;;;;6263432;28;20289;-61
2023/03/25 08:21:26;;;;;;;4.80;4.40;;;;;;;;;;6257918;28;20204;-60
2023/03/25 08:24:28;;;;;;;3.63;3.33;;;;;;;;;;6249667;28;20187;-59
2023/03/25 08:27:30;;;;;;;5.30;3.87;;;;;;;;;;6258245;28;20353;-59
2023/03/25 08:30:37;;;;;;;3.80;3.43;;;;;;;;;;6264746;28;20244;-61
2023/03/25 08:33:39;;;;;;;3.40;3.10;;;;;;;;;;6278076;28;20209;-61
2023/03/25 08:36:40;;;;;;;4.37;3.97;;;;;;;;;;6228967;28;20199;-61
2023/03/25 08:39:43;;;;;;;4.17;3.70;;;;;;;;;;6231791;28;20197;-61
2023/03/25 08:42:45;;;;;;;3.97;3.57;;;;;;;;;;6247533;28;20191;-60
2023/03/25 08:45:46;;;;;;;5.73;3.90;;;;;;;;;;6244072;28;20194;-59
2023/03/25 08:48:48;;;;;;;5.37;3.93;;;;;;;;;;6261322;28;20274;-60
2023/03/25 08:51:49;;;;;;;4.67;4.27;;;;;;;;;;6262638;28;20257;-60
2023/03/25 08:54:50;;;;;;;4.77;4.30;;;;;;;;;;6227029;28;20199;-61
2023/03/25 08:57:51;;;;;;;4.80;4.37;;;;;;;;;;6223814;28;20251;-61
2023/03/25 09:00:54;;;;;;;5.17;4.77;;;;;;;;;;6229107;28;20198;-61
2023/03/25 09:03:56;;;;;;;5.93;4.80;;;;;;;;;;6244447;28;20183;-61
2023/03/25 09:06:57;;;;;;;3.17;2.50;;;;;;;;;;6229670;28;20182;-59
2023/03/25 09:09:58;;;;;;;2.80;2.60;;;;;;;;;;6223642;28;20222;-61
2023/03/25 09:12:59;;;;;;;4.33;2.87;;;;;;;;;;6258323;28;20183;-61
2023/03/25 09:16:00;;;;;;;5.07;2.93;;;;;;;;;;6228893;28;20306;-59
2023/03/25 09:19:02;;;;;;;4.47;2.27;;;;;;;;;;6223155;28;20266;-61
2023/03/25 09:22:03;;;;;;;2.33;1.97;;;;;;;;;;6248047;28;20197;-61
2023/03/25 09:25:05;;;;;;;2.70;1.83;;;;;;;;;;6261493;28;20272;-61
2023/03/25 09:28:06;;;;;;;2.43;2.07;;;;;;;;;;6230781;28;20226;-61
2023/03/25 09:31:08;;;;;;;2.93;2.50;;;;;;;;;;6241345;28;20234;-59
2023/03/25 09:34:09;;;;;;;5.03;2.80;;;;;;;;;;6250594;28;20249;-59
2023/03/25 09:37:11;;;;;;;2.63;2.17;;;;;;;;;;6218737;28;20257;-59
2023/03/25 09:40:17;;;;;;;1.90;1.70;;;;;;;;;;6244422;28;20197;-59
2023/03/25 09:43:51;;;;;;;3.90;2.00;;;;;;;;;;6244700;28;20289;-59
2023/03/25 09:46:52;;;;;;;1.67;1.57;;;;;;;;;;6210395;28;20200;-58
2023/03/25 09:49:55;;;;;;;2.10;1.60;;;;;;;;;;6238319;28;20313;-58
2023/03/25 09:53:17;;;;;;;3.90;2.17;;;;;;;;;;6240095;28;20182;-59
2023/03/25 09:56:20;;;;;;;6.13;1.60;;;;;;;;;;6265287;28;20219;-59
2023/03/25 09:59:22;;;;;;;2.33;1.27;;;;;;;;;;6246849;28;20194;-59
2023/03/25 10:02:32;;;;;;;3.23;2.40;;;;;;;;;;6229618;28;20198;-59
2023/03/25 10:05:52;;;;;;;3.00;1.67;;;;;;;;;;6244271;28;20191;-59
2023/03/25 10:09:17;;;;;;;2.47;1.83;;;;;;;;;;6247872;28;20261;-59
2023/03/25 10:12:21;;;;;;;3.40;1.50;;;;;;;;;;6249195;28;20230;-60
2023/03/25 10:15:42;;;;;;;2.07;1.53;;;;;;;;;;6235485;28;20247;-60
2023/03/25 10:19:13;;;;;;;3.23;1.77;;;;;;;;;;6250887;28;20187;-60
2023/03/25 10:22:21;;;;;;;3.60;1.77;;;;;;;;;;6230946;28;20206;-60
2023/03/25 10:25:24;;;;;;;3.40;1.67;;;;;;;;;;6236437;28;20202;-60
2023/03/25 10:28:32;;;;;;;2.57;1.60;;;;;;;;;;6249933;28;20348;-60
2023/03/25 10:31:36;;;;;;;3.20;1.70;;;;;;;;;;6245587;28;20309;-60
2023/03/25 10:34:41;;;;;;;2.90;1.70;;;;;;;;;;6251466;28;20198;-60
2023/03/25 10:37:43;;;;;;;2.20;1.57;;;;;;;;;;6265493;28;20190;-60
2023/03/25 10:40:48;;;;;;;2.87;1.57;;;;;;;;;;6250484;28;20286;-60
2023/03/25 10:43:50;;;;;;;2.10;1.33;;;;;;;;;;6233885;28;20195;-60
2023/03/25 10:46:54;;;;;;;3.23;1.47;;;;;;;;;;6227961;28;20195;-60
2023/03/25 10:49:58;;;;;;;1.57;1.30;;;;;;;;;;6248637;28;20221;-60
2023/03/25 10:52:59;;;;;;;2.00;1.27;;;;;;;;;;6244359;28;20245;-60
2023/03/25 10:56:06;;;;;;;1.83;1.23;;;;;;;;;;6227788;28;20217;-60
2023/03/25 10:59:30;;;;;;;2.03;1.30;;;;;;;;;;6245216;28;20186;-58
2023/03/25 11:02:33;;;;;;;3.77;1.50;;;;;;;;;;6266297;28;20222;-59
2023/03/25 11:05:34;;;;;;;3.13;1.53;;;;;;;;;;6237002;28;20202;-58
2023/03/25 11:08:35;;;;;;;2.53;1.70;;;;;;;;;;6217853;28;20226;-59
2023/03/25 11:11:36;;;;;;;1.43;1.23;;;;;;;;;;6219773;28;20187;-59
2023/03/25 11:14:38;;;;;;;1.40;1.30;;;;;;;;;;6225595;28;20178;-59
2023/03/25 11:17:39;;;;;;;2.93;1.50;;;;;;;;;;6242314;28;20249;-59
2023/03/25 11:20:56;;;;;;;4.37;1.10;;;;;;;;;;6261608;28;20201;-58
2023/03/25 11:23:57;;;;;;;1.63;1.03;;;;;;;;;;6233379;28;20191;-59
2023/03/25 11:27:00;;;;;;;1.23;0.90;;;;;;;;;;6243916;28;20220;-59
2023/03/25 11:30:03;;;;;;;0.70;0.70;;;;;;;;;;6239468;28;20210;-59
2023/03/25 11:33:07;;;;;;;6.57;1.20;;;;;;;;;;6244264;28;20214;-59
2023/03/25 11:36:13;;;;;;;1.20;0.90;;;;;;;;;;6244804;28;20193;-59
2023/03/25 11:39:18;;;;;;;1.37;0.90;;;;;;;;;;6249495;28;20199;-59
2023/03/25 11:42:27;;;;;;;2.57;0.80;;;;;;;;;;6252797;28;20203;-60
2023/03/25 11:45:33;;;;;;;1.50;0.87;;;;;;;;;;6252503;28;20204;-60
2023/03/25 11:48:37;;;;;;;2.63;0.80;;;;;;;;;;6244307;28;20207;-59
2023/03/25 11:51:38;;;;;;;1.07;0.80;;;;;;;;;;6236048;28;20183;-59
2023/03/25 11:54:40;;;;;;;1.13;0.80;;;;;;;;;;6261602;28;20218;-59
2023/03/25 11:57:41;;;;;;;1.10;0.80;;;;;;;;;;6262365;28;20195;-59
2023/03/25 12:00:46;;;;;;;1.20;0.70;;;;;;;;;;6232595;28;20190;-59
2023/03/25 12:03:47;;;;;;;0.90;0.70;;;;;;;;;;6240606;28;20325;-59
2023/03/25 12:07:08;;;;;;;0.90;0.70;;;;;;;;;;6230721;28;20190;-59
2023/03/25 12:10:28;;;;;;;0.93;0.73;;;;;;;;;;6239696;28;20222;-59
2023/03/25 12:13:32;;;;;;;1.30;0.73;;;;;;;;;;6247437;28;20184;-58
2023/03/25 12:16:39;;;;;;;1.53;0.83;;;;;;;;;;6238857;28;20243;-59
2023/03/25 12:19:41;;;;;;;1.93;0.97;;;;;;;;;;6250116;28;20203;-58
2023/03/25 12:22:42;;;;;;;2.50;1.10;;;;;;;;;;6256117;28;20221;-58
2023/03/25 12:26:22;;;;;;;1.73;0.80;;;;;;;;;;6246158;28;20217;-58
2023/03/25 12:29:23;;;;;;;1.00;0.90;;;;;;;;;;6202538;28;20351;-59
2023/03/25 12:32:33;;;;;;;1.40;0.70;;;;;;;;;;6214641;28;20235;-61
2023/03/25 12:35:46;;;;;;;1.57;0.60;;;;;;;;;;6252797;28;20183;-61
2023/03/25 12:38:47;;;;;;;2.13;1.00;;;;;;;;;;6238819;28;20203;-59
2023/03/25 12:42:00;;;;;;;1.00;0.80;;;;;;;;;;6243686;28;20183;-60
2023/03/25 12:45:05;;;;;;;1.60;1.00;;;;;;;;;;6243913;28;20204;-59
2023/03/25 12:48:24;;;;;;;1.00;0.80;;;;;;;;;;6238540;28;20238;-61
2023/03/25 12:51:35;;;;;;;1.40;0.90;;;;;;;;;;6245598;28;20196;-60
2023/03/25 12:54:45;;;;;;;1.90;0.60;;;;;;;;;;6246478;28;20275;-59
2023/03/25 12:57:46;;;;;;;0.90;0.80;;;;;;;;;;6245749;28;20207;-59
2023/03/25 13:00:47;;;;;;;1.17;0.90;;;;;;;;;;6245308;28;20229;-60
2023/03/25 13:04:03;;;;;;;1.20;1.00;;;;;;;;;;6242191;28;20197;-60
2023/03/25 13:07:23;;;;;;;1.37;1.00;;;;;;;;;;6233014;28;20238;-60
2023/03/25 13:10:27;;;;;;;1.07;0.80;;;;;;;;;;6245632;28;20183;-59
2023/03/25 13:13:29;;;;;;;2.13;1.03;;;;;;;;;;6247092;28;20218;-59
2023/03/25 13:16:31;;;;;;;0.83;0.70;;;;;;;;;;6245207;28;20199;-60
2023/03/25 13:19:35;;;;;;;0.70;0.67;;;;;;;;;;6242146;28;20183;-59
2023/03/25 13:22:43;;;;;;;1.57;1.00;;;;;;;;;;6247260;28;20191;-59
2023/03/25 13:26:07;;;;;;;2.90;1.30;;;;;;;;;;6254541;28;20196;-59
2023/03/25 13:29:24;;;;;;;2.10;0.87;;;;;;;;;;6225229;28;20223;-59
2023/03/25 13:32:27;;;;;;;1.07;1.00;;;;;;;;;;6252625;28;20242;-57
2023/03/25 13:35:44;;;;;;;1.47;0.80;;;;;;;;;;6242511;28;20234;-57
2023/03/25 13:38:48;;;;;;;2.27;1.00;;;;;;;;;;6244560;28;20193;-58
2023/03/25 13:41:52;;;;;;;2.10;1.00;;;;;;;;;;6254194;28;20186;-58
2023/03/25 13:44:55;;;;;;;1.60;0.90;;;;;;;;;;6245219;28;20269;-57
2023/03/25 13:48:12;;;;;;;0.77;0.77;;;;;;;;;;6254618;28;20210;-57
2023/03/25 13:51:13;;;;;;;1.40;0.97;;;;;;;;;;6255572;28;20238;-57
2023/03/25 13:54:17;;;;;;;1.90;0.97;;;;;;;;;;6240677;28;20253;-57
2023/03/25 13:57:31;;;;;;;0.90;0.80;;;;;;;;;;6250337;28;20199;-58
2023/03/25 14:00:57;;;;;;;1.03;0.70;;;24.10;35.50;;;;;;6232092;28;20233;-58
2023/03/25 14:04:01;;;;;;;0.93;0.83;;;;;;;;;;6248786;28;20229;-58
2023/03/25 14:07:05;;;;;;;0.63;0.47;;;;;;;;;;6224931;28;20198;-58
2023/03/25 14:10:19;;;;;;;2.37;0.50;;;;;;;;;;6244664;28;20326;-59
2023/03/25 14:13:24;;;;;;;0.90;0.60;;;;;;;;;;6245946;28;20210;-59
2023/03/25 14:16:29;;;;;;;2.00;0.73;;;;;;;;;;6246209;28;20187;-58
2023/03/25 14:19:37;;;;;;;0.97;0.87;;;;;;;;;;6241766;28;20191;-58
2023/03/25 14:22:40;;;;;;;0.80;0.70;;;;;;;;;;6245836;28;20184;-58
2023/03/25 14:25:51;;;;;;;1.43;0.80;;;;;;;;;;6242909;28;20190;-58
2023/03/25 14:28:54;;;;;;;2.00;1.17;;;;;;;;;;6243111;28;20223;-58
2023/03/25 14:32:08;;;;;;;1.10;1.00;;;24.10;36.20;;;;;;6236769;28;20246;-57
2023/03/25 14:35:28;;;;;;;1.10;1.00;;;;;;;;;;6243820;28;20190;-58
2023/03/25 14:38:48;;;;;;;1.57;1.00;;;;;;;;;;6251193;28;20191;-58
2023/03/25 14:42:03;;;;;;;2.00;0.70;;;;;;;;;;6242803;28;20210;-58
2023/03/25 14:45:24;;;;;;;0.80;0.80;;;;;;;;;;6257107;28;20219;-58
2023/03/25 14:48:36;;;;;;;2.37;0.80;;;;;;;;;;6252480;28;20285;-59
2023/03/25 14:51:41;;;;;;;1.67;0.90;;;;;;;;;;6240608;28;20281;-59
2023/03/25 14:54:42;;;;;;;1.33;0.80;;;;;;;;;;6238754;28;20195;-59
2023/03/25 14:57:44;;;;;;;1.20;0.70;;;;;;;;;;6224325;28;20262;-58
2023/03/25 15:00:52;;;;;;;0.80;0.77;;;;;;;;;;6237416;28;20249;-58
2023/03/25 15:04:07;;;;;;;0.60;0.60;;;;;;;;;;6239662;28;20187;-58
2023/03/25 15:07:11;;;;;;;1.37;1.10;;;;;;;;;;6235098;28;20222;-58
2023/03/25 15:10:20;;;;;;;2.43;1.10;;;;;;;;;;6243617;28;20281;-58
2023/03/25 15:13:25;;;;;;;0.97;0.90;;;;;;;;;;6244300;28;20201;-58
2023/03/25 15:16:46;;;;;;;1.30;0.90;;;;;;;;;;6257709;28;20190;-58
2023/03/25 15:20:07;;;;;;;1.37;0.80;;;;;;;;;;6259439;28;20295;-58
2023/03/25 15:23:18;;;;;;;3.43;0.90;;;;;;;;;;6238044;28;20191;-58
2023/03/25 15:26:28;;;;;;;1.47;0.87;;;;;;;;;;6249736;28;20214;-58
2023/03/25 15:29:47;;;;;;;1.10;0.80;;;;;;;;;;6248551;28;20260;-58
2023/03/25 15:32:58;;;;;;;1.97;0.87;;;;;;;;;;6250947;28;20246;-58
2023/03/25 15:36:26;;;;;;;1.07;0.83;;;;;;;;;;6243996;28;20238;-57
2023/03/25 15:39:37;;;;;;;1.17;0.80;;;;;;;;;;6215621;28;20188;-58
2023/03/25 15:42:57;;;;;;;0.50;0.50;;;;;;;;;;6245747;28;20330;-58
2023/03/25 15:46:16;;;;;;;0.77;0.60;;;;;;;;;;6253244;28;20209;-57
2023/03/25 15:49:32;;;;;;;1.13;0.70;;;;;;;;;;6249192;28;20223;-58
2023/03/25 15:52:36;;;;;;;1.60;0.70;;;;;;;;;;6247221;28;20189;-58
2023/03/25 15:55:45;;;;;;;1.27;0.97;;;;;;;;;;6249836;28;20187;-57
2023/03/25 15:58:52;;;;;;;1.20;0.70;;;;;;;;;;6263025;28;20342;-58
2023/03/25 16:01:54;;;;;;;0.90;0.63;;;;;;;;;;6244185;28;20270;-58
2023/03/25 16:04:55;;;;;;;1.17;0.90;;;;;;;;;;6241268;28;20179;-58
2023/03/25 16:07:58;;;;;;;2.43;0.97;;;;;;;;;;6254925;28;20223;-58
2023/03/25 16:11:18;;;;;;;1.63;1.00;;;;;;;;;;6243695;28;20274;-58
2023/03/25 16:14:21;;;;;;;1.10;0.83;;;;;;;;;;6246839;28;20244;-57
2023/03/25 16:17:31;;;;;;;0.93;0.80;;;;;;;;;;6240191;28;20187;-58
2023/03/25 16:20:33;;;;;;;1.23;0.83;;;;;;;;;;6248596;28;20192;-58
2023/03/25 16:23:36;;;;;;;1.10;1.00;;;;;;;;;;6254896;28;20191;-58
2023/03/25 16:26:44;;;;;;;1.17;1.00;;;;;;;;;;6247274;28;20203;-58
2023/03/25 16:29:51;;;;;;;2.27;1.00;;;;;;;;;;6254778;28;20220;-58
2023/03/25 16:32:52;;;;;;;1.27;0.90;;;;;;;;;;6222861;28;20278;-58
2023/03/25 16:36:03;;;;;;;1.17;0.70;;;;;;;;;;6259158;28;20206;-57
2023/03/25 16:39:05;;;;;;;1.30;1.20;;;;;;;;;;6247428;28;20202;-58
2023/03/25 16:42:21;;;;;;;3.03;1.40;;;;;;;;;;6259307;28;20380;-58
2023/03/25 16:45:23;;;;;;;2.30;1.47;;;;;;;;;;6260427;28;20203;-58
2023/03/25 16:48:35;;;;;;;1.47;1.37;;;;;;;;;;6248946;28;21717;-57
2023/03/25 16:51:37;;;;;;;2.57;1.33;;;;;;;;;;6269018;28;20203;-57
2023/03/25 16:54:45;;;;;;;2.03;1.20;;;;;;;;;;6232579;28;20183;-58
2023/03/25 16:57:47;;;;;;;1.23;1.07;;;;;;;;;;6248597;28;20196;-57
2023/03/25 17:00:50;;;;;;;3.30;1.57;;;;;;;;;;6225232;28;20219;-57
2023/03/25 17:03:52;;;;;;;4.10;2.60;;;;;;;;;;6248953;28;20190;-58
2023/03/25 17:06:59;;;;;;;3.20;2.70;;;;;;;;;;6251170;28;20213;-58
2023/03/25 17:10:00;;;;;;;3.23;2.30;;;;;;;;;;6262804;28;20200;-58
2023/03/25 17:13:08;;;;;;;2.40;1.40;;;;;;;;;;6231846;28;20197;-58
2023/03/25 17:16:09;;;;;;;2.53;1.20;;;;;;;;;;6247027;28;20192;-59
2023/03/25 17:19:12;;;;;;;2.07;1.27;;;;;;;;;;6258115;28;20195;-59
2023/03/25 17:22:18;;;;;;;4.27;1.30;;;;;;;;;;6238299;28;20198;-60
2023/03/25 17:25:22;;;;;;;2.07;1.30;;;;;;;;;;6243365;28;20250;-61
2023/03/25 17:28:29;;;;;;;1.57;1.00;;;;;;;;;;6248172;28;20206;-62
2023/03/25 17:31:35;;;;;;;1.80;1.50;;;;;;;;;;6248926;28;20231;-62
2023/03/25 17:34:44;;;;;;;1.47;1.27;;;;;;;;;;6263658;28;20184;-60
2023/03/25 17:37:49;;;;;;;1.63;1.20;;;;;;;;;;6242147;28;20183;-61
2023/03/25 17:41:06;;;;;;;1.63;1.33;;;;;;;;;;6265403;28;20250;-61
2023/03/25 17:44:15;;;;;;;1.30;1.20;;;;;;;;;;6241847;28;20216;-59
2023/03/25 17:47:17;;;;;;;1.47;1.30;;;;;;;;;;6255694;28;20179;-61
2023/03/25 17:50:19;;;;;;;1.20;1.10;;;;;;;;;;6241350;28;20214;-62
2023/03/25 17:53:21;;;;;;;2.90;1.63;;;;;;;;;;6241594;28;20230;-61
2023/03/25 17:56:27;;;;;;;4.23;2.10;;;;;;;;;;6268592;28;20344;-60
2023/03/25 17:59:28;;;;;;;2.10;1.90;;;;;;;;;;6244148;28;20271;-59
2023/03/25 18:02:29;;;;;;;1.93;1.60;;;;;;;;;;6233275;28;20201;-61
2023/03/25 18:05:30;;;;;;;3.87;2.10;;;;;;;;;;6225104;28;20206;-60
2023/03/25 18:08:31;;;;;;;2.50;2.30;;;;;;;;;;6255586;28;20714;-59
2023/03/25 18:11:32;;;;;;;3.53;2.07;;;;;;;;;;6264215;28;20195;-59
2023/03/25 18:14:34;;;;;;;1.67;1.57;;;;;;;;;;6265745;28;20198;-59
2023/03/25 18:17:35;;;;;;;1.80;1.30;;;;;;;;;;6237877;28;20273;-58
2023/03/25 18:20:37;;;;;;;2.17;1.30;;;;;;;;;;6230643;28;20281;-61
2023/03/25 18:23:38;;;;;;;2.03;1.23;;;;;;;;;;6227051;28;20341;-59
2023/03/25 18:26:42;;;;;;;2.83;1.50;;;;;;;;;;6262323;28;20201;-60
2023/03/25 18:29:43;;;;;;;2.77;1.20;;;;;;;;;;6264564;28;20226;-59
2023/03/25 18:32:45;;;;;;;1.03;1.00;;;;;;;;;;6265114;28;20242;-60